createdAt,value
2023-08-17T00:00:12.372Z,76.17
2023-08-17T00:02:39.939Z,75.38
2023-08-17T00:05:08.298Z,74.48
2023-08-17T00:07:35.949Z,74.98
2023-08-17T00:10:03.772Z,75.17
2023-08-17T00:12:32.717Z,76.71
2023-08-17T00:15:00.271Z,76.51
2023-08-17T00:17:28.087Z,75.89
2023-08-17T00:19:55.941Z,75.58
2023-08-17T00:22:23.532Z,75.70
2023-08-17T00:24:51.348Z,76.25
2023-08-17T00:27:18.992Z,75.73
2023-08-17T00:29:48.013Z,76.60
2023-08-17T00:32:15.573Z,77.30
2023-08-17T00:34:43.116Z,77.07
2023-08-17T00:37:10.796Z,77.06
2023-08-17T00:39:38.387Z,76.50
2023-08-17T00:42:06.316Z,76.69
2023-08-17T00:44:33.860Z,78.26
2023-08-17T00:47:02.945Z,78.08
2023-08-17T00:49:31.019Z,78.77
2023-08-17T00:51:58.980Z,79.06
2023-08-17T00:54:29.253Z,78.60
2023-08-17T00:56:57.077Z,79.00
2023-08-17T00:59:25.651Z,78.91
2023-08-17T01:01:53.530Z,78.87
2023-08-17T01:04:22.573Z,78.35
2023-08-17T01:06:50.243Z,77.62
2023-08-17T01:09:17.879Z,78.79
2023-08-17T01:12:25.638Z,78.51
2023-08-17T01:15:01.584Z,77.22
2023-08-17T01:17:33.890Z,78.10
2023-08-17T01:20:05.120Z,77.85
2023-08-17T01:22:34.752Z,77.44
2023-08-17T01:25:04.315Z,76.92
2023-08-17T01:27:38.725Z,76.14
2023-08-17T01:30:07.926Z,78.71
2023-08-17T01:32:40.667Z,77.72
2023-08-17T01:35:16.158Z,78.06
2023-08-17T01:37:45.185Z,77.32
2023-08-17T01:40:15.797Z,76.74
2023-08-17T01:42:44.599Z,76.26
2023-08-17T01:45:13.249Z,76.23
2023-08-17T01:47:40.812Z,75.94
2023-08-17T01:50:08.856Z,77.12
2023-08-17T01:52:36.538Z,76.61
2023-08-17T01:55:04.152Z,77.29
2023-08-17T01:57:33.051Z,76.68
2023-08-17T02:00:01.343Z,76.64
2023-08-17T02:02:28.933Z,76.80
2023-08-17T02:04:56.539Z,77.19
2023-08-17T02:07:24.373Z,76.80
2023-08-17T02:09:52.118Z,77.15
2023-08-17T02:12:19.654Z,77.75
2023-08-17T02:14:48.806Z,78.35
2023-08-17T02:17:17.493Z,79.19
2023-08-17T02:19:45.052Z,78.78
2023-08-17T02:22:12.683Z,79.59
2023-08-17T02:24:40.254Z,79.21
2023-08-17T02:27:07.827Z,79.08
2023-08-17T02:29:35.359Z,79.13
2023-08-17T02:32:04.435Z,79.04
2023-08-17T02:34:31.966Z,77.89
2023-08-17T02:36:59.512Z,77.46
2023-08-17T02:39:28.346Z,78.08
2023-08-17T02:41:55.896Z,78.04
2023-08-17T02:44:23.468Z,77.83
2023-08-17T02:46:50.999Z,78.70
2023-08-17T02:49:21.290Z,78.93
2023-08-17T02:51:48.885Z,77.59
2023-08-17T02:54:16.406Z,76.73
2023-08-17T02:56:43.985Z,77.01
2023-08-17T02:59:11.511Z,76.51
2023-08-17T03:01:39.205Z,76.31
2023-08-17T03:04:07.180Z,77.59
2023-08-17T03:06:36.050Z,80.51
2023-08-17T03:09:03.623Z,77.71
2023-08-17T03:11:31.166Z,77.64
2023-08-17T03:14:01.138Z,78.50
2023-08-17T03:16:31.027Z,77.44
2023-08-17T03:18:59.159Z,76.93
2023-08-17T03:21:27.299Z,76.47
2023-08-17T03:23:56.201Z,76.12
2023-08-17T03:26:23.839Z,76.19
2023-08-17T03:28:51.355Z,76.52
2023-08-17T03:31:18.996Z,77.47
2023-08-17T03:33:46.562Z,79.02
2023-08-17T03:36:14.290Z,78.47
2023-08-17T03:38:41.866Z,76.95
2023-08-17T03:41:12.153Z,76.36
2023-08-17T03:43:39.686Z,77.38
2023-08-17T03:46:07.374Z,76.63
2023-08-17T03:48:35.063Z,76.99
2023-08-17T03:51:03.580Z,77.38
2023-08-17T03:53:31.101Z,76.99
2023-08-17T03:55:58.655Z,77.49
2023-08-17T03:58:27.786Z,77.74
2023-08-17T04:00:55.685Z,77.73
2023-08-17T04:03:23.253Z,77.31
2023-08-17T04:05:50.811Z,77.41
2023-08-17T04:08:18.508Z,77.65
2023-08-17T04:10:46.050Z,76.65
2023-08-17T04:13:13.575Z,76.94
2023-08-17T04:15:42.479Z,76.86
2023-08-17T04:18:10.071Z,77.62
2023-08-17T04:20:37.645Z,76.70
2023-08-17T04:23:06.235Z,77.09
2023-08-17T04:25:33.802Z,76.44
2023-08-17T04:28:01.431Z,77.77
2023-08-17T04:30:29.063Z,76.53
2023-08-17T04:32:57.978Z,76.02
2023-08-17T04:35:25.530Z,76.58
2023-08-17T04:37:53.111Z,76.25
2023-08-17T04:40:20.692Z,76.73
2023-08-17T04:42:48.271Z,76.87
2023-08-17T04:45:15.823Z,76.93
2023-08-17T04:47:43.453Z,75.71
2023-08-17T04:50:17.071Z,75.80
2023-08-17T04:52:44.995Z,75.90
2023-08-17T04:55:12.979Z,75.74
2023-08-17T04:57:40.559Z,76.01
2023-08-17T05:00:10.509Z,75.90
2023-08-17T05:02:38.697Z,75.59
2023-08-17T05:05:07.619Z,75.30
2023-08-17T05:07:36.726Z,75.70
2023-08-17T05:10:04.962Z,76.02
2023-08-17T05:12:32.563Z,76.52
2023-08-17T05:15:00.141Z,76.24
2023-08-17T05:17:28.071Z,76.34
2023-08-17T05:19:57.041Z,76.23
2023-08-17T05:22:25.071Z,76.39
2023-08-17T05:24:54.029Z,76.52
2023-08-17T05:27:21.618Z,76.97
2023-08-17T05:29:49.184Z,77.08
2023-08-17T05:32:16.787Z,77.12
2023-08-17T05:34:44.349Z,77.07
2023-08-17T05:37:11.904Z,77.36
2023-08-17T05:39:40.391Z,77.76
2023-08-17T05:42:10.913Z,76.93
2023-08-17T05:44:38.493Z,77.17
2023-08-17T05:47:06.165Z,77.26
2023-08-17T05:49:33.700Z,76.82
2023-08-17T05:52:01.260Z,78.34
2023-08-17T05:54:28.798Z,77.49
2023-08-17T05:56:56.629Z,77.02
2023-08-17T05:59:25.686Z,77.29
2023-08-17T06:01:53.319Z,77.10
2023-08-17T06:04:21.779Z,77.61
2023-08-17T06:06:49.506Z,80.44
2023-08-17T06:09:17.078Z,78.36
2023-08-17T06:11:44.682Z,77.51
2023-08-17T06:14:12.253Z,79.53
2023-08-17T06:16:41.276Z,78.79
2023-08-17T06:19:08.839Z,78.93
2023-08-17T06:21:36.373Z,78.17
2023-08-17T06:24:04.172Z,77.50
2023-08-17T06:26:31.961Z,77.41
2023-08-17T06:29:00.008Z,78.98
2023-08-17T06:31:28.703Z,79.37
2023-08-17T06:33:57.872Z,79.35
2023-08-17T06:36:25.447Z,78.68
2023-08-17T06:38:52.998Z,78.40
2023-08-17T06:41:20.833Z,79.45
2023-08-17T06:43:48.435Z,77.95
2023-08-17T06:46:16.094Z,78.64
2023-08-17T06:48:44.807Z,78.80
2023-08-17T06:51:13.749Z,79.21
2023-08-17T06:53:41.266Z,78.56
2023-08-17T06:56:09.085Z,78.08
2023-08-17T06:58:36.620Z,78.81
2023-08-17T07:01:04.204Z,78.80
2023-08-17T07:03:31.753Z,78.44
2023-08-17T07:05:59.844Z,77.79
2023-08-17T07:08:28.762Z,77.88
2023-08-17T07:10:56.914Z,79.49
2023-08-17T07:13:24.493Z,79.03
2023-08-17T07:15:52.125Z,78.24
2023-08-17T07:18:20.135Z,79.40
2023-08-17T07:20:47.661Z,78.31
2023-08-17T07:23:15.192Z,78.73
2023-08-17T07:25:45.268Z,78.07
2023-08-17T07:28:12.922Z,77.79
2023-08-17T07:30:40.494Z,78.33
2023-08-17T07:33:08.152Z,78.08
2023-08-17T07:35:35.849Z,78.53
2023-08-17T07:38:08.729Z,78.67
2023-08-17T07:40:37.345Z,78.13
2023-08-17T07:43:06.357Z,79.41
2023-08-17T07:45:34.200Z,80.63
2023-08-17T07:48:02.026Z,81.04
2023-08-17T07:50:29.750Z,81.35
2023-08-17T07:52:57.394Z,81.08
2023-08-17T07:55:25.539Z,80.54
2023-08-17T07:57:53.136Z,79.44
2023-08-17T08:00:22.298Z,78.42
2023-08-17T08:02:49.951Z,78.67
2023-08-17T08:05:17.695Z,78.38
2023-08-17T08:07:45.308Z,78.07
2023-08-17T08:10:13.075Z,79.57
2023-08-17T08:12:40.658Z,79.69
2023-08-17T08:15:09.562Z,78.98
2023-08-17T08:17:38.690Z,78.79
2023-08-17T08:20:07.598Z,78.53
2023-08-17T08:22:35.133Z,78.18
2023-08-17T08:25:02.837Z,78.50
2023-08-17T08:27:30.456Z,77.72
2023-08-17T08:29:58.554Z,78.62
2023-08-17T08:32:27.858Z,78.58
2023-08-17T08:34:57.667Z,78.02
2023-08-17T08:37:25.872Z,78.00
2023-08-17T08:39:55.543Z,78.89
2023-08-17T08:42:24.529Z,77.79
2023-08-17T08:44:52.840Z,77.53
2023-08-17T08:47:20.561Z,77.26
2023-08-17T08:50:04.051Z,77.17
2023-08-17T08:52:37.168Z,77.17
2023-08-17T08:55:13.104Z,77.15
2023-08-17T08:57:41.676Z,78.36
2023-08-17T09:00:10.753Z,78.01
2023-08-17T09:02:38.979Z,79.75
2023-08-17T09:05:08.916Z,80.41
2023-08-17T09:07:40.028Z,78.94
2023-08-17T09:10:08.567Z,79.46
2023-08-17T09:12:41.051Z,78.96
2023-08-17T09:15:10.115Z,78.03
2023-08-17T09:17:38.150Z,78.92
2023-08-17T09:20:08.876Z,78.14
2023-08-17T09:22:43.090Z,78.52
2023-08-17T09:25:11.829Z,79.46
2023-08-17T09:27:40.280Z,79.62
2023-08-17T09:30:11.117Z,77.60
2023-08-17T09:32:39.044Z,79.05
2023-08-17T09:35:07.879Z,78.67
2023-08-17T09:37:35.848Z,78.75
2023-08-17T09:40:05.741Z,77.66
2023-08-17T09:42:36.816Z,78.20
2023-08-17T09:45:05.088Z,77.88
2023-08-17T09:47:32.680Z,77.21
2023-08-17T09:50:00.269Z,77.81
2023-08-17T09:52:28.049Z,77.69
2023-08-17T09:54:56.719Z,77.63
2023-08-17T09:57:26.465Z,76.87
2023-08-17T09:59:56.285Z,77.33
2023-08-17T10:02:26.349Z,77.47
2023-08-17T10:04:56.002Z,76.91
2023-08-17T10:07:26.580Z,77.39
2023-08-17T10:09:58.880Z,76.91
2023-08-17T10:12:30.617Z,77.25
2023-08-17T10:15:04.288Z,76.93
2023-08-17T10:17:37.328Z,77.10
2023-08-17T10:20:06.377Z,76.83
2023-08-17T10:22:39.415Z,76.48
2023-08-17T10:25:12.674Z,76.68
2023-08-17T10:27:42.114Z,76.51
2023-08-17T10:30:13.596Z,76.52
2023-08-17T10:32:46.502Z,77.67
2023-08-17T10:35:15.665Z,77.39
2023-08-17T10:37:44.185Z,77.33
2023-08-17T10:40:15.722Z,76.98
2023-08-17T10:42:47.323Z,76.00
2023-08-17T10:45:31.653Z,76.25
2023-08-17T10:48:27.903Z,77.00
2023-08-17T10:51:05.285Z,77.58
2023-08-17T10:53:39.762Z,77.70
2023-08-17T10:56:10.075Z,76.93
2023-08-17T10:58:39.304Z,76.68
2023-08-17T11:01:06.962Z,76.01
2023-08-17T11:03:34.958Z,76.07
2023-08-17T11:06:19.124Z,75.93
2023-08-17T11:08:55.073Z,76.03
2023-08-17T11:11:24.055Z,76.19
2023-08-17T11:13:57.461Z,75.55
2023-08-17T11:16:25.826Z,76.25
2023-08-17T11:18:53.980Z,75.19
2023-08-17T11:21:21.908Z,75.51
2023-08-17T11:23:49.777Z,76.08
2023-08-17T11:26:18.011Z,75.43
2023-08-17T11:28:46.290Z,74.68
2023-08-17T11:31:17.164Z,75.69
2023-08-17T11:33:45.912Z,74.72
2023-08-17T11:36:13.614Z,74.96
2023-08-17T11:38:43.209Z,74.43
2023-08-17T11:41:18.525Z,74.36
2023-08-17T11:43:47.832Z,74.16
2023-08-17T11:46:17.513Z,73.80
2023-08-17T11:48:45.677Z,73.89
2023-08-17T11:51:14.029Z,73.50
2023-08-17T11:53:42.084Z,73.68
2023-08-17T11:56:11.537Z,73.74
2023-08-17T11:58:43.557Z,74.23
2023-08-17T12:01:13.228Z,73.80
2023-08-17T12:03:43.449Z,74.01
2023-08-17T12:06:13.874Z,74.29
2023-08-17T12:08:46.741Z,74.29
2023-08-17T12:11:14.906Z,74.59
2023-08-17T12:13:42.552Z,74.26
2023-08-17T12:16:16.930Z,73.83
2023-08-17T12:18:47.604Z,74.29
2023-08-17T12:21:15.284Z,73.79
2023-08-17T12:23:44.071Z,73.83
2023-08-17T12:26:12.188Z,74.13
2023-08-17T12:28:42.281Z,74.23
2023-08-17T12:31:09.963Z,73.84
2023-08-17T12:33:37.625Z,73.39
2023-08-17T12:36:07.989Z,73.49
2023-08-17T12:38:36.056Z,74.06
2023-08-17T12:41:07.015Z,74.14
2023-08-17T12:43:34.895Z,74.09
2023-08-17T12:46:02.462Z,73.90
2023-08-17T12:48:30.030Z,74.61
2023-08-17T12:50:57.610Z,73.99
2023-08-17T12:53:26.650Z,74.31
2023-08-17T12:55:55.993Z,73.87
2023-08-17T12:58:24.106Z,74.35
2023-08-17T13:00:52.163Z,74.54
2023-08-17T13:03:20.026Z,74.15
2023-08-17T13:05:47.784Z,74.30
2023-08-17T13:08:15.393Z,74.47
2023-08-17T13:10:44.453Z,75.46
2023-08-17T13:13:12.105Z,74.70
2023-08-17T13:15:39.713Z,75.28
2023-08-17T13:18:07.765Z,74.27
2023-08-17T13:20:35.506Z,74.66
2023-08-17T13:23:03.167Z,74.40
2023-08-17T13:25:30.781Z,74.28
2023-08-17T13:27:59.709Z,74.34
2023-08-17T13:30:27.486Z,74.60
2023-08-17T13:32:55.118Z,74.53
2023-08-17T13:35:22.750Z,74.54
2023-08-17T13:37:54.593Z,74.48
2023-08-17T13:40:22.168Z,73.38
2023-08-17T13:42:49.733Z,73.89
2023-08-17T13:45:19.106Z,73.79
2023-08-17T13:48:04.753Z,73.67
2023-08-17T13:50:32.362Z,73.33
2023-08-17T13:53:01.299Z,73.22
2023-08-17T13:55:29.179Z,73.51
2023-08-17T13:57:57.347Z,73.42
2023-08-17T14:00:27.566Z,73.30
2023-08-17T14:02:55.440Z,73.41
2023-08-17T14:05:23.066Z,73.45
2023-08-17T14:07:50.652Z,73.52
2023-08-17T14:10:29.229Z,74.15
2023-08-17T14:13:05.602Z,73.55
2023-08-17T14:15:34.510Z,76.26
2023-08-17T14:18:02.096Z,77.85
2023-08-17T14:20:29.982Z,78.36
2023-08-17T14:22:57.502Z,78.58
2023-08-17T14:25:25.032Z,76.38
2023-08-17T14:27:52.617Z,76.17
2023-08-17T14:30:20.168Z,78.08
2023-08-17T14:32:49.069Z,78.63
2023-08-17T14:35:16.623Z,78.19
2023-08-17T14:37:44.098Z,77.65
2023-08-17T14:40:12.322Z,78.09
2023-08-17T14:42:40.199Z,76.05
2023-08-17T14:45:08.774Z,76.93
2023-08-17T14:47:36.400Z,75.16
2023-08-17T14:50:06.565Z,74.95
2023-08-17T14:52:34.722Z,74.80
2023-08-17T14:55:02.443Z,74.34
2023-08-17T14:57:30.069Z,74.13
2023-08-17T14:59:57.816Z,73.71
2023-08-17T15:02:25.437Z,73.55
2023-08-17T15:04:53.200Z,73.33
2023-08-17T15:07:22.065Z,72.92
2023-08-17T15:09:50.330Z,72.30
2023-08-17T15:12:17.858Z,72.20
2023-08-17T15:14:45.360Z,73.46
2023-08-17T15:17:13.624Z,72.67
2023-08-17T15:19:42.329Z,72.87
2023-08-17T15:22:15.493Z,72.79
2023-08-17T15:24:45.389Z,73.31
2023-08-17T15:27:12.949Z,71.66
2023-08-17T15:29:40.941Z,72.64
2023-08-17T15:32:08.910Z,72.01
2023-08-17T15:34:36.420Z,72.39
2023-08-17T15:37:04.167Z,71.79
2023-08-17T15:39:31.964Z,71.48
2023-08-17T15:42:00.856Z,72.09
2023-08-17T15:44:28.454Z,71.46
2023-08-17T15:46:59.143Z,71.34
2023-08-17T15:49:28.802Z,71.37
2023-08-17T15:51:56.415Z,71.97
2023-08-17T15:54:34.942Z,72.10
2023-08-17T15:57:05.619Z,71.69
2023-08-17T15:59:33.441Z,71.25
2023-08-17T16:02:01.046Z,71.21
2023-08-17T16:04:28.566Z,72.21
2023-08-17T16:06:56.148Z,73.57
2023-08-17T16:09:23.863Z,74.58
2023-08-17T16:11:51.448Z,75.88
2023-08-17T16:14:20.339Z,75.15
2023-08-17T16:16:47.890Z,75.25
2023-08-17T16:19:15.403Z,76.86
2023-08-17T16:21:42.947Z,76.63
2023-08-17T16:24:10.567Z,77.32
2023-08-17T16:26:38.154Z,77.23
2023-08-17T16:29:06.091Z,78.02
2023-08-17T16:31:37.129Z,79.12
2023-08-17T16:34:05.145Z,79.34
2023-08-17T16:36:36.297Z,80.73
2023-08-17T16:39:04.718Z,81.33
2023-08-17T16:41:32.302Z,82.48
2023-08-17T16:44:05.606Z,82.61
2023-08-17T16:46:34.932Z,80.59
2023-08-17T16:49:02.474Z,78.34
2023-08-17T16:54:03.018Z,77.82
2023-08-17T16:56:30.543Z,77.71
2023-08-17T16:59:01.776Z,78.38
2023-08-17T17:01:29.656Z,77.04
2023-08-17T17:03:58.600Z,75.84
2023-08-17T17:06:26.369Z,76.64
2023-08-17T17:08:54.662Z,76.41
2023-08-17T17:11:22.182Z,77.41
2023-08-17T17:13:49.968Z,76.69
2023-08-17T17:16:20.341Z,76.60
2023-08-17T17:18:48.401Z,76.71
2023-08-17T17:21:17.270Z,76.14
2023-08-17T17:23:46.079Z,76.90
2023-08-17T17:26:14.234Z,77.04
2023-08-17T17:28:41.882Z,76.20
2023-08-17T17:31:09.725Z,76.43
2023-08-17T17:33:37.293Z,76.83
2023-08-17T17:36:05.539Z,77.77
2023-08-17T17:38:34.396Z,77.51
2023-08-17T17:41:01.956Z,76.25
2023-08-17T17:43:29.529Z,76.75
2023-08-17T17:45:57.201Z,76.59
2023-08-17T17:48:24.729Z,76.34
2023-08-17T17:50:52.259Z,77.21
2023-08-17T17:53:19.830Z,76.56
2023-08-17T17:55:48.680Z,77.37
2023-08-17T17:58:16.294Z,77.30
2023-08-17T18:00:44.119Z,77.53
2023-08-17T18:03:14.403Z,76.73
2023-08-17T18:05:44.056Z,76.05
2023-08-17T18:08:11.918Z,76.18
2023-08-17T18:10:40.178Z,75.95
2023-08-17T18:13:10.116Z,76.32
2023-08-17T18:15:38.932Z,76.15
2023-08-17T18:18:08.536Z,75.95
2023-08-17T18:20:36.236Z,76.70
2023-08-17T18:23:03.856Z,75.94
2023-08-17T18:25:32.932Z,76.49
2023-08-17T18:28:00.647Z,76.33
2023-08-17T18:30:30.173Z,76.89
2023-08-17T18:32:57.930Z,76.84
2023-08-17T18:35:25.588Z,77.04
2023-08-17T18:37:53.183Z,77.55
2023-08-17T18:40:21.635Z,77.66
2023-08-17T18:42:50.645Z,78.58
2023-08-17T18:45:20.297Z,77.47
2023-08-17T18:47:49.284Z,77.11
2023-08-17T18:50:17.641Z,78.09
2023-08-17T18:52:45.459Z,78.05
2023-08-17T18:55:14.233Z,77.48
2023-08-17T18:57:42.251Z,77.63
2023-08-17T19:00:11.875Z,78.01
2023-08-17T19:02:41.179Z,77.96
2023-08-17T19:05:11.076Z,77.97
2023-08-17T19:07:38.614Z,77.91
2023-08-17T19:10:07.428Z,78.00
2023-08-17T19:12:35.558Z,78.09
2023-08-17T19:15:03.301Z,77.57
2023-08-17T19:17:32.284Z,77.52
2023-08-17T19:20:00.336Z,77.12
2023-08-17T19:22:29.285Z,78.37
2023-08-17T19:24:56.811Z,78.10
2023-08-17T19:27:24.387Z,77.50
2023-08-17T19:29:51.920Z,77.29
2023-08-17T19:32:19.402Z,76.54
2023-08-17T19:34:46.942Z,76.48
2023-08-17T19:37:14.582Z,76.58
2023-08-17T19:39:43.446Z,77.94
2023-08-17T19:42:11.071Z,78.25
2023-08-17T19:44:38.921Z,77.56
2023-08-17T19:47:07.892Z,77.11
2023-08-17T19:49:35.739Z,78.64
2023-08-17T19:52:03.460Z,77.59
2023-08-17T19:54:31.003Z,78.79
2023-08-17T19:56:59.887Z,78.44
2023-08-17T19:59:27.448Z,78.62
2023-08-17T20:01:55.304Z,77.84
2023-08-17T20:04:22.901Z,78.09
2023-08-17T20:06:51.020Z,77.64
2023-08-17T20:09:18.591Z,77.77
2023-08-17T20:11:46.060Z,77.54
2023-08-17T20:14:17.000Z,78.06
2023-08-17T20:16:44.830Z,78.67
2023-08-17T20:19:12.328Z,78.74
2023-08-17T20:21:39.828Z,78.62
2023-08-17T20:24:09.452Z,79.04
2023-08-17T20:26:37.447Z,78.58
2023-08-17T20:29:05.645Z,79.83
2023-08-17T20:31:34.920Z,79.13
2023-08-17T20:34:02.455Z,78.42
2023-08-17T20:36:29.990Z,78.88
2023-08-17T20:38:57.531Z,78.46
2023-08-17T20:41:25.075Z,78.77
2023-08-17T20:43:53.769Z,78.08
2023-08-17T20:46:21.352Z,79.00
2023-08-17T20:48:50.759Z,80.17
2023-08-17T20:51:18.327Z,81.10
2023-08-17T20:53:45.903Z,80.01
2023-08-17T20:56:13.581Z,78.91
2023-08-17T20:58:41.156Z,79.42
2023-08-17T21:01:08.781Z,79.13
2023-08-17T21:03:37.075Z,78.10
2023-08-17T21:06:07.112Z,79.00
2023-08-17T21:08:35.008Z,78.79
2023-08-17T21:11:03.222Z,78.76
2023-08-17T21:13:31.208Z,79.33
2023-08-17T21:16:05.917Z,78.84
2023-08-17T21:18:33.890Z,77.78
2023-08-17T21:21:01.493Z,77.43
2023-08-17T21:23:31.722Z,77.21
2023-08-17T21:25:59.958Z,77.59
2023-08-17T21:28:27.776Z,78.01
2023-08-17T21:31:02.368Z,79.35
2023-08-17T21:33:30.243Z,78.92
2023-08-17T21:35:58.597Z,78.41
2023-08-17T21:38:26.341Z,78.01
2023-08-17T21:40:58.951Z,77.50
2023-08-17T21:43:26.726Z,77.09
2023-08-17T21:45:55.869Z,77.09
2023-08-17T21:48:23.738Z,76.69
2023-08-17T21:50:51.338Z,76.53
2023-08-17T21:53:19.780Z,77.13
2023-08-17T21:55:47.550Z,77.18
2023-08-17T21:58:16.475Z,76.56
2023-08-17T22:00:44.307Z,76.22
2023-08-17T22:03:12.054Z,76.45
2023-08-17T22:05:40.433Z,76.92
2023-08-17T22:08:08.138Z,76.95
2023-08-17T22:10:35.864Z,76.52
2023-08-17T22:13:03.486Z,76.56
2023-08-17T22:15:32.383Z,76.85
2023-08-17T22:17:59.936Z,76.73
2023-08-17T22:20:27.675Z,77.21
2023-08-17T22:22:55.199Z,77.21
2023-08-17T22:25:22.711Z,76.56
2023-08-17T22:27:50.688Z,76.70
2023-08-17T22:30:18.331Z,76.73
2023-08-17T22:32:47.318Z,76.66
2023-08-17T22:35:14.905Z,77.27
2023-08-17T22:37:42.472Z,77.28
2023-08-17T22:40:11.504Z,77.24
2023-08-17T22:42:39.299Z,77.51
2023-08-17T22:45:08.406Z,77.17
2023-08-17T22:47:38.284Z,77.50
2023-08-17T22:50:08.932Z,77.72
2023-08-17T22:52:36.464Z,77.96
2023-08-17T22:55:04.373Z,78.10
2023-08-17T22:57:31.991Z,78.25
2023-08-17T23:00:00.765Z,77.75
2023-08-17T23:02:28.354Z,77.93
2023-08-17T23:04:56.024Z,77.52
2023-08-17T23:07:24.891Z,76.96
2023-08-17T23:09:52.402Z,76.40
2023-08-17T23:12:19.961Z,76.37
2023-08-17T23:14:47.608Z,76.70
2023-08-17T23:17:15.171Z,76.64
2023-08-17T23:19:42.719Z,76.92
2023-08-17T23:22:10.252Z,76.73
2023-08-17T23:24:39.359Z,76.92
2023-08-17T23:27:07.481Z,76.85
2023-08-17T23:29:35.659Z,76.59
2023-08-17T23:32:20.486Z,77.72
2023-08-17T23:34:54.945Z,77.36
2023-08-17T23:37:22.488Z,76.73
2023-08-17T23:39:54.330Z,76.43
2023-08-17T23:42:22.220Z,76.46
2023-08-17T23:44:49.754Z,76.54
2023-08-17T23:47:17.373Z,77.30
2023-08-17T23:49:45.554Z,77.38
2023-08-17T23:52:13.235Z,78.23
2023-08-17T23:54:40.812Z,77.69
2023-08-17T23:57:09.707Z,78.29
2023-08-17T23:59:37.234Z,77.90
